createdAt,value
2023-09-28T00:01:40.910Z,98953.47
2023-09-28T00:04:10.433Z,98957.31
2023-09-28T00:06:40.103Z,98963.78
2023-09-28T00:09:11.664Z,98957.72
2023-09-28T00:11:40.988Z,98964.34
2023-09-28T00:14:10.170Z,98965.16
2023-09-28T00:16:39.490Z,98960.69
2023-09-28T00:19:09.724Z,98954.22
2023-09-28T00:21:39.217Z,98957.66
2023-09-28T00:24:10.859Z,98957.25
2023-09-28T00:26:40.257Z,98959.63
2023-09-28T00:29:09.568Z,98957.41
2023-09-28T00:31:40.213Z,98955.19
2023-09-28T00:34:09.794Z,98953.94
2023-09-28T00:36:39.021Z,98957.97
2023-09-28T00:39:09.897Z,98959.78
2023-09-28T00:41:39.242Z,98955.72
2023-09-28T00:44:08.473Z,98954.13
2023-09-28T00:46:38.834Z,98955.34
2023-09-28T00:49:08.753Z,98958.16
2023-09-28T00:51:40.546Z,98953.91
2023-09-28T00:54:12.705Z,98958.16
2023-09-28T00:56:43.181Z,98965.00
2023-09-28T00:59:12.451Z,98960.56
2023-09-28T01:01:41.781Z,98960.53
2023-09-28T01:04:11.364Z,98958.91
2023-09-28T01:06:40.953Z,98963.53
2023-09-28T01:09:11.187Z,98969.78
2023-09-28T01:11:42.827Z,98967.72
2023-09-28T01:14:12.118Z,98965.28
2023-09-28T01:16:41.750Z,98964.09
2023-09-28T01:19:10.991Z,98960.84
2023-09-28T01:21:41.134Z,98963.66
2023-09-28T01:24:10.626Z,98968.44
2023-09-28T01:26:40.866Z,98963.97
2023-09-28T01:29:11.231Z,98955.69
2023-09-28T01:31:40.600Z,98956.50
2023-09-28T01:34:10.426Z,98956.88
2023-09-28T01:36:39.754Z,98962.50
2023-09-28T01:39:08.952Z,98967.94
2023-09-28T01:41:38.241Z,98959.66
2023-09-28T01:44:07.456Z,98957.41
2023-09-28T01:46:36.724Z,98955.38
2023-09-28T01:49:06.380Z,98956.38
2023-09-28T01:51:35.599Z,98955.56
2023-09-28T01:54:05.065Z,98960.16
2023-09-28T01:56:34.253Z,98954.09
2023-09-28T01:59:03.798Z,98957.47
2023-09-28T02:01:33.407Z,98962.44
2023-09-28T02:04:02.637Z,98962.41
2023-09-28T02:06:31.843Z,98963.97
2023-09-28T02:09:01.081Z,98964.34
2023-09-28T02:11:30.295Z,98955.28
2023-09-28T02:14:00.739Z,98960.06
2023-09-28T02:16:30.708Z,98959.00
2023-09-28T02:19:00.019Z,98953.78
2023-09-28T02:21:29.192Z,98956.59
2023-09-28T02:24:02.332Z,98951.53
2023-09-28T02:26:31.532Z,98963.44
2023-09-28T02:29:01.092Z,98959.00
2023-09-28T02:31:30.355Z,98953.97
2023-09-28T02:34:01.397Z,98952.16
2023-09-28T02:36:33.951Z,98959.25
2023-09-28T02:39:08.392Z,98956.63
2023-09-28T02:41:37.579Z,98959.44
2023-09-28T02:44:07.179Z,98959.44
2023-09-28T02:46:36.910Z,98955.41
2023-09-28T02:49:08.050Z,98952.53
2023-09-28T02:51:37.240Z,98956.53
2023-09-28T02:54:06.539Z,98967.00
2023-09-28T02:56:35.981Z,98962.13
2023-09-28T02:59:05.882Z,98969.34
2023-09-28T03:01:35.184Z,98969.34
2023-09-28T03:04:04.718Z,98967.34
2023-09-28T03:06:38.723Z,98966.72
2023-09-28T03:09:10.228Z,98968.97
2023-09-28T03:11:40.939Z,98968.78
2023-09-28T03:14:10.549Z,98972.81
2023-09-28T03:16:40.836Z,98968.59
2023-09-28T03:19:11.561Z,98973.03
2023-09-28T03:21:43.481Z,98971.78
2023-09-28T03:24:12.806Z,98970.16
2023-09-28T03:26:42.057Z,98968.09
2023-09-28T03:29:11.386Z,98964.25
2023-09-28T03:31:41.521Z,98967.41
2023-09-28T03:34:11.425Z,98970.03
2023-09-28T03:36:40.732Z,98975.44
2023-09-28T03:39:11.497Z,98973.38
2023-09-28T03:41:40.681Z,98975.19
2023-09-28T03:44:09.982Z,98968.94
2023-09-28T03:46:39.259Z,98980.03
2023-09-28T03:49:08.427Z,98976.78
2023-09-28T03:51:37.590Z,98973.75
2023-09-28T03:54:07.022Z,98963.03
2023-09-28T03:56:36.187Z,98962.44
2023-09-28T03:59:05.490Z,98965.84
2023-09-28T04:01:35.139Z,98977.28
2023-09-28T04:04:04.668Z,98968.66
2023-09-28T04:06:33.895Z,98970.44
2023-09-28T04:09:03.824Z,98965.84
2023-09-28T04:11:33.071Z,98974.28
2023-09-28T04:14:09.032Z,98971.97
2023-09-28T04:16:40.353Z,98966.34
2023-09-28T04:19:09.591Z,98967.78
2023-09-28T04:21:38.779Z,98967.78
2023-09-28T04:24:08.180Z,98975.19
2023-09-28T04:26:37.484Z,98960.63
2023-09-28T04:29:06.725Z,98969.88
2023-09-28T04:31:36.121Z,98980.34
2023-09-28T04:34:05.375Z,98987.56
2023-09-28T04:36:35.484Z,98978.28
2023-09-28T04:39:05.588Z,98987.13
2023-09-28T04:41:34.853Z,98985.84
2023-09-28T04:44:05.381Z,98993.69
2023-09-28T04:46:34.672Z,98989.09
2023-09-28T04:49:04.033Z,98990.72
2023-09-28T04:51:33.219Z,98984.31
2023-09-28T04:54:04.432Z,98995.19
2023-09-28T04:56:33.729Z,98983.56
2023-09-28T04:59:06.746Z,98986.66
2023-09-28T05:01:36.082Z,98990.50
2023-09-28T05:04:05.902Z,98991.75
2023-09-28T05:06:36.608Z,98978.94
2023-09-28T05:09:06.447Z,98983.22
2023-09-28T05:11:36.101Z,98987.16
2023-09-28T05:14:05.500Z,98986.03
2023-09-28T05:16:34.896Z,98991.94
2023-09-28T05:19:04.395Z,98994.59
2023-09-28T05:21:33.613Z,98992.66
2023-09-28T05:24:02.867Z,98994.31
2023-09-28T05:26:32.093Z,99001.22
2023-09-28T05:29:01.446Z,99007.13
2023-09-28T05:31:31.330Z,98996.91
2023-09-28T05:34:00.902Z,98995.34
2023-09-28T05:36:30.199Z,99004.13
2023-09-28T05:38:59.518Z,99005.59
2023-09-28T05:41:28.786Z,99001.00
2023-09-28T05:43:58.009Z,99001.66
2023-09-28T05:46:27.380Z,99004.13
2023-09-28T05:48:56.615Z,99001.34
2023-09-28T05:51:25.865Z,98996.75
2023-09-28T05:53:55.787Z,98996.97
2023-09-28T05:56:25.131Z,99002.03
2023-09-28T05:58:55.243Z,99005.72
2023-09-28T06:01:25.716Z,98992.63
2023-09-28T06:03:55.348Z,99005.59
2023-09-28T06:06:25.380Z,99002.34
2023-09-28T06:08:55.053Z,99001.16
2023-09-28T06:11:25.567Z,99000.97
2023-09-28T06:14:07.114Z,99007.88
2023-09-28T06:16:38.216Z,99006.88
2023-09-28T06:19:08.262Z,99005.88
2023-09-28T06:21:39.629Z,99014.72
2023-09-28T06:24:08.995Z,99008.50
2023-09-28T06:26:43.413Z,99001.22
2023-09-28T06:29:13.320Z,99002.00
2023-09-28T06:31:45.510Z,99001.97
2023-09-28T06:34:14.887Z,98999.13
2023-09-28T06:36:44.111Z,98997.06
2023-09-28T06:39:14.092Z,98996.66
2023-09-28T06:41:43.318Z,98995.41
2023-09-28T06:44:12.579Z,98997.75
2023-09-28T06:46:42.060Z,99000.22
2023-09-28T06:49:13.255Z,99000.13
2023-09-28T06:51:43.463Z,99003.13
2023-09-28T06:54:12.665Z,99005.28
2023-09-28T06:56:42.814Z,98998.78
2023-09-28T06:59:14.520Z,99001.50
2023-09-28T07:01:43.953Z,98991.72
2023-09-28T07:04:13.377Z,98994.91
2023-09-28T07:06:42.650Z,98992.19
2023-09-28T07:09:13.405Z,98997.78
2023-09-28T07:11:42.632Z,99007.59
2023-09-28T07:14:12.136Z,98999.69
2023-09-28T07:16:41.483Z,99008.88
2023-09-28T07:19:10.944Z,98999.88
2023-09-28T07:21:40.268Z,99000.78
2023-09-28T07:24:18.600Z,99005.06
2023-09-28T07:26:48.452Z,99003.56
2023-09-28T07:29:17.774Z,98994.75
2023-09-28T07:31:47.024Z,99000.91
2023-09-28T07:34:16.372Z,98999.78
2023-09-28T07:36:46.495Z,99002.13
2023-09-28T07:39:16.081Z,98997.56
2023-09-28T07:41:46.436Z,99005.78
2023-09-28T07:44:15.688Z,99005.47
2023-09-28T07:46:45.019Z,99005.75
2023-09-28T07:49:18.385Z,99008.28
2023-09-28T07:51:47.702Z,99003.47
2023-09-28T07:54:17.026Z,99000.53
2023-09-28T07:56:46.278Z,98991.25
2023-09-28T07:59:15.633Z,98992.31
2023-09-28T08:01:45.006Z,98985.06
2023-09-28T08:04:14.345Z,98987.38
2023-09-28T08:06:43.994Z,98984.75
2023-09-28T08:09:15.448Z,98986.84
2023-09-28T08:11:44.733Z,98979.69
2023-09-28T08:14:16.764Z,98977.28
2023-09-28T08:16:46.754Z,98974.50
2023-09-28T08:19:16.426Z,98967.38
2023-09-28T08:21:45.630Z,98968.59
2023-09-28T08:24:14.917Z,98968.47
2023-09-28T08:26:44.434Z,98971.91
2023-09-28T08:29:14.105Z,98966.00
2023-09-28T08:31:43.395Z,98960.31
2023-09-28T08:34:22.088Z,98962.38
2023-09-28T08:36:54.561Z,98952.53
2023-09-28T08:39:23.763Z,98958.75
2023-09-28T08:41:56.837Z,98955.19
2023-09-28T08:44:29.790Z,98959.56
2023-09-28T08:47:01.507Z,98945.41
2023-09-28T08:49:31.094Z,98944.22
2023-09-28T08:52:03.322Z,98937.72
2023-09-28T08:54:33.692Z,98936.25
2023-09-28T08:57:03.170Z,98938.25
2023-09-28T08:59:33.010Z,98936.03
2023-09-28T09:02:04.805Z,98936.13
2023-09-28T09:04:35.931Z,98927.75
2023-09-28T09:07:06.266Z,98925.16
2023-09-28T09:09:41.661Z,98929.22
2023-09-28T09:12:11.734Z,98920.56
2023-09-28T09:14:43.915Z,98920.13
2023-09-28T09:17:13.612Z,98931.09
2023-09-28T09:19:43.893Z,98919.50
2023-09-28T09:22:26.982Z,98919.56
2023-09-28T09:24:58.071Z,98917.28
2023-09-28T09:27:29.021Z,98914.19
2023-09-28T09:30:09.522Z,98911.09
2023-09-28T09:32:43.123Z,98912.56
2023-09-28T09:35:12.869Z,98908.72
2023-09-28T09:37:52.154Z,98904.78
2023-09-28T09:40:22.309Z,98907.53
2023-09-28T09:42:51.600Z,98899.66
2023-09-28T09:45:21.069Z,98881.91
2023-09-28T09:47:50.820Z,98894.16
2023-09-28T09:50:22.415Z,98891.56
2023-09-28T09:52:54.188Z,98891.88
2023-09-28T09:55:23.534Z,98885.28
2023-09-28T09:58:02.791Z,98886.44
2023-09-28T10:00:34.237Z,98885.41
2023-09-28T10:03:06.729Z,98884.38
2023-09-28T10:05:37.829Z,98876.94
2023-09-28T10:08:09.522Z,98878.84
2023-09-28T10:10:39.571Z,98876.50
2023-09-28T10:13:08.977Z,98877.56
2023-09-28T10:15:39.301Z,98867.53
2023-09-28T10:18:08.897Z,98867.53
2023-09-28T10:20:38.538Z,98871.31
2023-09-28T10:23:22.589Z,98862.31
2023-09-28T10:26:17.284Z,98852.75
2023-09-28T10:29:09.208Z,98851.19
2023-09-28T10:34:23.865Z,98851.22
2023-09-28T10:37:12.746Z,98857.84
2023-09-28T10:39:50.318Z,98849.88
2023-09-28T10:42:21.967Z,98852.81
2023-09-28T10:44:57.802Z,98852.31
2023-09-28T10:47:28.591Z,98846.97
2023-09-28T10:50:09.700Z,98849.13
2023-09-28T10:52:39.977Z,98845.91
2023-09-28T10:55:09.724Z,98845.41
2023-09-28T10:57:40.141Z,98838.50
2023-09-28T11:00:13.572Z,98836.34
2023-09-28T11:02:43.177Z,98841.66
2023-09-28T11:05:13.421Z,98828.59
2023-09-28T11:07:42.884Z,98833.09
2023-09-28T11:10:13.033Z,98833.63
2023-09-28T11:12:42.940Z,98826.41
2023-09-28T11:15:15.828Z,98821.31
2023-09-28T11:17:48.498Z,98823.72
2023-09-28T11:20:20.947Z,98809.59
2023-09-28T11:22:57.848Z,98813.31
2023-09-28T11:25:44.901Z,98809.56
2023-09-28T11:28:15.936Z,98818.59
2023-09-28T11:30:45.236Z,98810.59
2023-09-28T11:33:14.625Z,98805.50
2023-09-28T11:35:44.950Z,98804.41
2023-09-28T11:38:14.218Z,98809.97
2023-09-28T11:40:45.303Z,98811.00
2023-09-28T11:43:14.639Z,98805.94
2023-09-28T11:45:44.226Z,98804.56
2023-09-28T11:48:20.898Z,98797.06
2023-09-28T11:50:50.392Z,98793.28
2023-09-28T11:53:20.074Z,98795.63
2023-09-28T11:55:50.431Z,98784.69
2023-09-28T11:58:23.475Z,98792.63
2023-09-28T12:00:52.761Z,98788.06
2023-09-28T12:03:23.142Z,98781.91
2023-09-28T12:05:53.390Z,98777.59
2023-09-28T12:08:22.941Z,98774.38
2023-09-28T12:10:52.314Z,98779.72
2023-09-28T12:13:23.356Z,98778.84
2023-09-28T12:15:52.858Z,98774.28
2023-09-28T12:18:22.770Z,98779.56
2023-09-28T12:20:52.298Z,98777.38
2023-09-28T12:23:21.559Z,98777.34
2023-09-28T12:25:50.808Z,98776.28
2023-09-28T12:28:20.325Z,98769.34
2023-09-28T12:30:49.966Z,98775.75
2023-09-28T12:33:19.969Z,98768.81
2023-09-28T12:35:49.997Z,98768.25
2023-09-28T12:38:19.329Z,98762.06
2023-09-28T12:40:49.297Z,98768.09
2023-09-28T12:43:18.559Z,98753.88
2023-09-28T12:45:48.392Z,98756.47
2023-09-28T12:48:19.968Z,98755.38
2023-09-28T12:50:49.352Z,98746.75
2023-09-28T12:53:19.064Z,98751.75
2023-09-28T12:55:48.935Z,98750.63
2023-09-28T12:58:19.648Z,98755.91
2023-09-28T13:00:51.007Z,98749.47
2023-09-28T13:03:22.220Z,98746.53
2023-09-28T13:05:52.066Z,98733.97
2023-09-28T13:08:21.697Z,98742.19
2023-09-28T13:10:51.618Z,98737.06
2023-09-28T13:13:21.139Z,98744.25
2023-09-28T13:15:50.415Z,98745.59
2023-09-28T13:18:19.658Z,98730.41
2023-09-28T13:20:50.013Z,98727.53
2023-09-28T13:23:19.318Z,98726.31
2023-09-28T13:25:48.529Z,98730.84
2023-09-28T13:28:18.524Z,98725.97
2023-09-28T13:30:48.756Z,98730.13
2023-09-28T13:33:18.191Z,98729.13
2023-09-28T13:35:47.532Z,98725.09
2023-09-28T13:38:17.817Z,98721.72
2023-09-28T13:40:52.035Z,98727.72
2023-09-28T13:43:27.679Z,98723.50
2023-09-28T13:45:57.075Z,98725.06
2023-09-28T13:48:29.071Z,98730.78
2023-09-28T13:50:59.203Z,98738.28
2023-09-28T13:53:30.580Z,98737.97
2023-09-28T13:55:59.933Z,98742.41
2023-09-28T13:58:30.509Z,98745.38
2023-09-28T14:01:00.410Z,98738.56
2023-09-28T14:03:30.937Z,98738.00
2023-09-28T14:06:00.611Z,98740.78
2023-09-28T14:08:32.449Z,98738.13
2023-09-28T14:11:01.853Z,98736.31
2023-09-28T14:13:31.121Z,98738.59
2023-09-28T14:16:00.483Z,98728.91
2023-09-28T14:18:29.935Z,98745.16
2023-09-28T14:20:59.208Z,98734.84
2023-09-28T14:23:28.466Z,98737.78
2023-09-28T14:25:57.768Z,98733.69
2023-09-28T14:28:27.121Z,98730.38
2023-09-28T14:30:56.701Z,98730.66
2023-09-28T14:33:27.214Z,98729.59
2023-09-28T14:35:57.164Z,98738.94
2023-09-28T14:38:26.501Z,98725.22
2023-09-28T14:40:56.215Z,98737.47
2023-09-28T14:43:26.301Z,98725.84
2023-09-28T14:45:55.550Z,98730.25
2023-09-28T14:48:25.131Z,98732.56
2023-09-28T14:50:54.423Z,98732.66
2023-09-28T14:53:23.897Z,98730.06
2023-09-28T14:55:53.435Z,98728.84
2023-09-28T14:58:22.797Z,98723.34
2023-09-28T15:00:53.775Z,98727.47
2023-09-28T15:03:23.720Z,98728.88
2023-09-28T15:05:53.571Z,98734.31
2023-09-28T15:08:23.518Z,98736.53
2023-09-28T15:10:52.858Z,98729.16
2023-09-28T15:13:22.118Z,98741.78
2023-09-28T15:15:51.556Z,98734.13
2023-09-28T15:18:21.929Z,98740.03
2023-09-28T15:20:51.206Z,98739.31
2023-09-28T15:23:20.436Z,98732.72
2023-09-28T15:25:49.698Z,98743.41
2023-09-28T15:28:18.955Z,98737.63
2023-09-28T15:30:58.107Z,98742.19
2023-09-28T15:33:27.619Z,98741.16
2023-09-28T15:35:59.006Z,98747.31
2023-09-28T15:38:28.718Z,98739.63
2023-09-28T15:40:58.579Z,98745.53
2023-09-28T15:43:29.699Z,98747.63
2023-09-28T15:45:58.957Z,98751.13
2023-09-28T15:48:28.321Z,98755.41
2023-09-28T15:50:58.102Z,98746.88
2023-09-28T15:53:27.328Z,98751.41
2023-09-28T15:55:56.707Z,98746.34
2023-09-28T15:58:26.279Z,98745.75
2023-09-28T16:00:55.477Z,98746.28
2023-09-28T16:03:24.782Z,98750.50
2023-09-28T16:05:54.049Z,98752.06
2023-09-28T16:08:23.407Z,98747.50
2023-09-28T16:10:52.622Z,98751.97
2023-09-28T16:13:21.890Z,98754.56
2023-09-28T16:15:51.506Z,98750.78
2023-09-28T16:18:20.784Z,98766.09
2023-09-28T16:20:50.181Z,98770.28
2023-09-28T16:23:19.496Z,98766.44
2023-09-28T16:25:48.835Z,98763.69
2023-09-28T16:28:18.274Z,98766.19
2023-09-28T16:30:47.771Z,98770.59
2023-09-28T16:33:17.178Z,98772.81
2023-09-28T16:35:46.418Z,98772.19
2023-09-28T16:38:15.867Z,98778.75
2023-09-28T16:40:45.263Z,98781.56
2023-09-28T16:43:14.599Z,98784.41
2023-09-28T16:45:43.871Z,98774.50
2023-09-28T16:48:13.134Z,98786.91
2023-09-28T16:50:42.398Z,98789.97
2023-09-28T16:53:11.716Z,98788.47
2023-09-28T16:55:40.950Z,98795.75
2023-09-28T16:58:10.216Z,98794.81
2023-09-28T17:00:39.729Z,98790.88
2023-09-28T17:03:09.090Z,98788.03
2023-09-28T17:05:38.572Z,98795.81
2023-09-28T17:08:07.973Z,98800.97
2023-09-28T17:10:37.637Z,98803.59
2023-09-28T17:13:06.890Z,98805.47
2023-09-28T17:15:36.457Z,98811.63
2023-09-28T17:18:19.800Z,98814.34
2023-09-28T17:20:50.903Z,98817.03
2023-09-28T17:23:20.721Z,98812.59
2023-09-28T17:25:52.410Z,98824.56
2023-09-28T17:28:21.925Z,98815.41
2023-09-28T17:30:51.724Z,98827.84
2023-09-28T17:33:21.363Z,98825.56
2023-09-28T17:35:50.899Z,98834.66
2023-09-28T17:38:20.763Z,98836.84
2023-09-28T17:40:50.419Z,98837.66
2023-09-28T17:43:20.035Z,98841.56
2023-09-28T17:45:50.422Z,98843.28
2023-09-28T17:48:20.346Z,98847.88
2023-09-28T17:50:52.000Z,98849.13
2023-09-28T17:53:21.677Z,98854.06
2023-09-28T17:55:51.308Z,98856.81
2023-09-28T17:58:23.317Z,98857.72
2023-09-28T18:00:52.972Z,98866.31
2023-09-28T18:03:23.157Z,98867.81
2023-09-28T18:05:52.934Z,98861.06
2023-09-28T18:08:22.948Z,98863.97
2023-09-28T18:10:52.737Z,98870.38
2023-09-28T18:13:22.693Z,98874.34
2023-09-28T18:15:52.417Z,98867.81
2023-09-28T18:18:22.487Z,98878.66
2023-09-28T18:20:52.447Z,98880.38
2023-09-28T18:23:22.804Z,98876.81
2023-09-28T18:25:55.401Z,98881.09
2023-09-28T18:28:26.281Z,98884.88
2023-09-28T18:30:56.555Z,98886.34
2023-09-28T18:33:26.472Z,98887.81
2023-09-28T18:35:57.911Z,98895.13
2023-09-28T18:38:28.378Z,98891.34
2023-09-28T18:40:58.149Z,98892.78
2023-09-28T18:43:28.891Z,98897.94
2023-09-28T18:46:01.095Z,98907.75
2023-09-28T18:48:31.434Z,98894.84
2023-09-28T18:51:01.364Z,98903.06
2023-09-28T18:53:30.923Z,98902.25
2023-09-28T18:56:06.583Z,98896.72
2023-09-28T18:58:38.664Z,98904.44
2023-09-28T19:01:16.422Z,98899.91
2023-09-28T19:03:46.479Z,98916.28
2023-09-28T19:06:21.141Z,98917.34
2023-09-28T19:08:51.434Z,98927.16
2023-09-28T19:11:21.285Z,98925.75
2023-09-28T19:13:54.421Z,98923.56
2023-09-28T19:16:24.292Z,98925.00
2023-09-28T19:18:54.578Z,98920.16
2023-09-28T19:21:25.090Z,98927.06
2023-09-28T19:23:55.264Z,98930.13
2023-09-28T19:26:25.118Z,98936.44
2023-09-28T19:28:54.855Z,98939.47
2023-09-28T19:31:25.995Z,98940.72
2023-09-28T19:33:56.744Z,98938.53
2023-09-28T19:36:26.962Z,98941.56
2023-09-28T19:38:56.655Z,98947.84
2023-09-28T19:41:28.678Z,98945.22
2023-09-28T19:43:58.777Z,98943.81
2023-09-28T19:46:30.004Z,98950.31
2023-09-28T19:49:00.294Z,98947.50
2023-09-28T19:51:30.855Z,98952.59
2023-09-28T19:54:01.195Z,98959.88
2023-09-28T19:56:33.081Z,98959.47
2023-09-28T19:59:03.839Z,98953.25
2023-09-28T20:01:33.301Z,98952.88
2023-09-28T20:04:03.377Z,98957.91
2023-09-28T20:06:34.223Z,98964.19
2023-09-28T20:09:04.654Z,98959.72
2023-09-28T20:11:35.689Z,98967.84
2023-09-28T20:14:05.464Z,98963.00
2023-09-28T20:16:34.885Z,98968.47
2023-09-28T20:19:04.176Z,98968.66
2023-09-28T20:21:33.454Z,98971.47
2023-09-28T20:24:06.175Z,98971.72
2023-09-28T20:26:35.455Z,98970.69
2023-09-28T20:29:04.898Z,98972.13
2023-09-28T20:31:34.262Z,98970.69
2023-09-28T20:34:03.852Z,98972.31
2023-09-28T20:36:33.051Z,98975.38
2023-09-28T20:39:02.297Z,98976.00
2023-09-28T20:41:32.360Z,98982.66
2023-09-28T20:44:01.743Z,98984.09
2023-09-28T20:46:31.067Z,98982.69
2023-09-28T20:49:01.277Z,98986.56
2023-09-28T20:51:32.458Z,98989.00
2023-09-28T20:54:01.683Z,98986.78
2023-09-28T20:56:30.920Z,98983.97
2023-09-28T20:59:00.168Z,98986.63
2023-09-28T21:01:29.358Z,98984.81
2023-09-28T21:03:59.381Z,98991.47
2023-09-28T21:06:28.600Z,98990.06
2023-09-28T21:08:58.627Z,98988.44
2023-09-28T21:11:28.070Z,98985.25
2023-09-28T21:13:57.508Z,98989.88
2023-09-28T21:16:26.769Z,98989.69
2023-09-28T21:18:56.288Z,98985.84
2023-09-28T21:21:25.756Z,98992.50
2023-09-28T21:23:55.285Z,98985.06
2023-09-28T21:26:24.573Z,98991.31
2023-09-28T21:28:54.052Z,98984.28
2023-09-28T21:31:23.875Z,98986.09
2023-09-28T21:33:53.164Z,98989.91
2023-09-28T21:36:22.670Z,98981.84
2023-09-28T21:38:52.030Z,98986.69
2023-09-28T21:41:21.327Z,98989.50
2023-09-28T21:43:50.976Z,98998.38
2023-09-28T21:46:22.837Z,98993.56
2023-09-28T21:48:52.485Z,99000.22
2023-09-28T21:51:22.459Z,98993.78
2023-09-28T21:53:51.810Z,98995.59
2023-09-28T21:56:21.120Z,98997.41
2023-09-28T21:58:50.521Z,98999.59
2023-09-28T22:01:20.015Z,98999.19
2023-09-28T22:03:50.834Z,98990.69
2023-09-28T22:06:20.340Z,99001.19
2023-09-28T22:08:49.704Z,99003.19
2023-09-28T22:11:19.092Z,99009.47
2023-09-28T22:13:48.529Z,99008.03
2023-09-28T22:16:17.863Z,99008.84
2023-09-28T22:18:47.337Z,99004.59
2023-09-28T22:21:18.626Z,99003.78
2023-09-28T22:23:49.382Z,99009.66
2023-09-28T22:26:18.736Z,99008.44
2023-09-28T22:28:48.346Z,99012.53
2023-09-28T22:31:17.644Z,99010.47
2023-09-28T22:33:46.910Z,99010.47
2023-09-28T22:36:16.478Z,99020.94
2023-09-28T22:38:45.697Z,99009.44
2023-09-28T22:41:16.444Z,99008.22
2023-09-28T22:43:45.689Z,99010.66
2023-09-28T22:46:14.911Z,99011.66
2023-09-28T22:48:44.695Z,99012.84
2023-09-28T22:51:13.860Z,99013.28
2023-09-28T22:53:44.112Z,99017.09
2023-09-28T22:56:13.361Z,99016.84
2023-09-28T22:58:42.552Z,99022.53
2023-09-28T23:01:11.875Z,99022.09
2023-09-28T23:03:41.281Z,99030.78
2023-09-28T23:06:10.707Z,99030.56
2023-09-28T23:08:39.942Z,99028.56
2023-09-28T23:11:16.068Z,99028.38
2023-09-28T23:13:45.348Z,99032.81
2023-09-28T23:16:15.782Z,99034.44
2023-09-28T23:18:45.113Z,99024.94
2023-09-28T23:21:14.301Z,99027.13
2023-09-28T23:23:43.598Z,99015.63
2023-09-28T23:26:12.873Z,99029.34
2023-09-28T23:28:44.938Z,99027.75
2023-09-28T23:31:14.909Z,99036.00
2023-09-28T23:33:44.602Z,99044.44
2023-09-28T23:36:16.714Z,99031.31
2023-09-28T23:38:47.685Z,99038.97
2023-09-28T23:41:20.123Z,99036.31
2023-09-28T23:43:49.993Z,99040.13
2023-09-28T23:46:19.177Z,99033.25
2023-09-28T23:48:49.311Z,99033.63
2023-09-28T23:51:18.503Z,99040.47
2023-09-28T23:53:47.807Z,99040.03
2023-09-28T23:56:17.072Z,99040.66
2023-09-28T23:58:46.241Z,99046.72
